createdAt,value
2019-02-17T00:02:19.658Z,56.50
2019-02-17T00:06:25.346Z,58.90
2019-02-17T00:10:31.041Z,60.60
2019-02-17T00:14:37.797Z,59.70
2019-02-17T00:18:43.528Z,56.70
2019-02-17T00:22:49.206Z,60.20
2019-02-17T00:26:54.883Z,58.40
2019-02-17T00:31:00.649Z,55.90
2019-02-17T00:35:09.390Z,57.50
2019-02-17T00:39:16.039Z,54.60
2019-02-17T00:43:21.727Z,55.90
2019-02-17T00:47:27.488Z,62.10
2019-02-17T00:51:33.177Z,58.00
2019-02-17T00:55:38.860Z,56.60
2019-02-17T00:59:44.608Z,56.50
2019-02-17T01:03:50.305Z,57.10
2019-02-17T01:07:55.979Z,59.40
2019-02-17T01:12:01.667Z,58.60
2019-02-17T01:16:07.560Z,59.00
2019-02-17T01:20:13.391Z,57.50
2019-02-17T01:24:19.141Z,60.60
2019-02-17T01:28:24.883Z,62.70
2019-02-17T01:32:30.566Z,59.20
2019-02-17T01:36:36.355Z,67.50
2019-02-17T01:40:42.111Z,61.10
2019-02-17T01:44:47.877Z,61.30
2019-02-17T01:48:53.539Z,55.60
2019-02-17T01:52:59.294Z,60.70
2019-02-17T01:57:04.995Z,57.80
2019-02-17T02:01:10.775Z,58.70
2019-02-17T02:05:16.841Z,58.50
2019-02-17T02:09:22.516Z,62.70
2019-02-17T02:13:28.204Z,62.40
2019-02-17T02:17:33.897Z,60.30
2019-02-17T02:21:39.657Z,59.00
2019-02-17T02:25:45.457Z,59.50
2019-02-17T02:29:51.103Z,60.70
2019-02-17T02:33:56.783Z,59.40
2019-02-17T02:38:02.478Z,59.90
2019-02-17T02:42:08.164Z,63.30
2019-02-17T02:46:13.874Z,65.30
2019-02-17T02:50:19.541Z,60.10
2019-02-17T02:54:25.228Z,59.70
2019-02-17T02:58:30.933Z,60.40
2019-02-17T03:02:36.608Z,64.20
2019-02-17T03:06:46.488Z,62.40
2019-02-17T03:10:52.159Z,63.40
2019-02-17T03:14:58.808Z,63.10
2019-02-17T03:19:04.596Z,62.40
2019-02-17T03:23:10.288Z,64.90
2019-02-17T03:27:15.978Z,63.90
2019-02-17T03:31:21.666Z,65.50
2019-02-17T03:35:27.427Z,66.60
2019-02-17T03:39:33.116Z,63.60
2019-02-17T03:43:38.803Z,65.50
2019-02-17T03:47:44.673Z,65.70
2019-02-17T03:51:50.358Z,65.10
2019-02-17T03:55:56.043Z,64.00
2019-02-17T04:00:01.865Z,64.40
2019-02-17T04:04:09.104Z,65.20
2019-02-17T04:08:14.883Z,64.20
2019-02-17T04:12:20.731Z,67.00
2019-02-17T04:16:26.419Z,65.80
2019-02-17T04:20:32.105Z,66.60
2019-02-17T04:24:37.788Z,64.10
2019-02-17T04:28:43.504Z,64.80
2019-02-17T04:32:49.183Z,66.50
2019-02-17T04:36:54.883Z,66.40
2019-02-17T04:41:00.556Z,65.10
2019-02-17T04:45:08.371Z,69.30
2019-02-17T04:49:14.038Z,68.10
2019-02-17T04:53:19.745Z,67.00
2019-02-17T04:57:25.442Z,70.00
2019-02-17T05:01:31.130Z,66.90
2019-02-17T05:05:36.799Z,64.80
2019-02-17T05:09:42.481Z,65.30
2019-02-17T05:13:48.161Z,67.20
2019-02-17T05:17:53.872Z,66.20
2019-02-17T05:21:59.534Z,67.70
2019-02-17T05:26:05.242Z,69.50
2019-02-17T05:30:13.043Z,70.60
2019-02-17T05:34:18.792Z,66.20
2019-02-17T05:38:24.494Z,67.50
2019-02-17T05:42:30.181Z,69.00
2019-02-17T05:46:35.847Z,68.20
2019-02-17T05:50:41.527Z,64.40
2019-02-17T05:54:47.354Z,71.70
2019-02-17T05:58:53.044Z,68.20
2019-02-17T06:02:58.750Z,65.50
2019-02-17T06:07:04.439Z,69.70
2019-02-17T06:11:10.163Z,67.60
2019-02-17T06:15:15.870Z,74.20
2019-02-17T06:19:21.558Z,71.60
2019-02-17T06:23:27.246Z,68.70
2019-02-17T06:27:32.923Z,64.90
2019-02-17T06:31:38.686Z,70.80
2019-02-17T06:35:44.413Z,66.40
2019-02-17T06:39:50.081Z,70.00
2019-02-17T06:43:55.770Z,68.20
2019-02-17T06:48:01.505Z,68.50
2019-02-17T06:52:07.202Z,69.60
2019-02-17T06:56:17.084Z,65.00
2019-02-17T07:00:24.408Z,63.60
2019-02-17T07:04:31.737Z,67.10
2019-02-17T07:08:37.458Z,65.10
2019-02-17T07:12:43.134Z,69.60
2019-02-17T07:16:48.806Z,68.50
2019-02-17T07:20:54.598Z,67.60
2019-02-17T07:25:00.313Z,63.50
2019-02-17T07:29:06.024Z,60.20
2019-02-17T07:33:12.769Z,56.40
2019-02-17T07:37:19.379Z,64.50
2019-02-17T07:41:26.960Z,66.70
2019-02-17T07:45:32.625Z,59.90
2019-02-17T07:49:38.318Z,59.30
2019-02-17T07:53:44.026Z,63.70
2019-02-17T07:57:49.724Z,61.60
2019-02-17T08:01:55.468Z,62.90
2019-02-17T08:06:01.218Z,61.30
2019-02-17T08:10:10.136Z,64.00
2019-02-17T08:14:15.811Z,61.00
2019-02-17T08:18:21.503Z,66.10
2019-02-17T08:22:27.201Z,59.70
2019-02-17T08:26:32.886Z,59.70
2019-02-17T08:30:38.584Z,59.10
2019-02-17T08:34:44.268Z,60.30
2019-02-17T08:38:50.116Z,60.70
2019-02-17T08:42:55.895Z,58.90
2019-02-17T08:47:01.659Z,58.10
2019-02-17T08:51:07.544Z,61.00
2019-02-17T08:55:13.314Z,58.50
2019-02-17T08:59:19.025Z,58.90
2019-02-17T09:03:24.713Z,56.50
2019-02-17T09:07:30.389Z,54.30
2019-02-17T09:11:36.104Z,54.80
2019-02-17T09:15:41.835Z,51.90
2019-02-17T09:19:47.579Z,51.60
2019-02-17T09:23:53.257Z,47.00
2019-02-17T09:27:58.977Z,43.70
2019-02-17T09:32:04.685Z,40.20
2019-02-17T09:36:10.928Z,37.50
2019-02-17T09:40:16.627Z,39.00
2019-02-17T09:44:22.326Z,41.70
2019-02-17T09:48:28.034Z,38.00
2019-02-17T09:52:33.746Z,39.40
2019-02-17T09:56:39.489Z,41.60
2019-02-17T10:00:45.282Z,39.80
2019-02-17T10:04:51.105Z,37.20
2019-02-17T10:08:56.817Z,37.50
2019-02-17T10:13:04.324Z,39.50
2019-02-17T10:17:10.020Z,33.10
2019-02-17T10:21:15.752Z,30.20
2019-02-17T10:25:21.459Z,30.50
2019-02-17T10:29:27.176Z,33.30
2019-02-17T10:33:32.893Z,32.50
2019-02-17T10:37:38.639Z,29.80
2019-02-17T10:41:44.370Z,30.20
2019-02-17T10:46:17.166Z,32.70
2019-02-17T10:50:22.876Z,30.50
2019-02-17T10:59:18.866Z,33.30
2019-02-17T11:03:24.583Z,35.40
2019-02-17T11:07:30.299Z,35.30
2019-02-17T11:11:36.069Z,34.80
2019-02-17T11:16:14.305Z,34.70
2019-02-17T11:20:20.023Z,32.80
2019-02-17T11:24:25.861Z,30.90
2019-02-17T11:28:31.572Z,27.90
2019-02-17T11:32:37.301Z,26.50
2019-02-17T11:36:43.019Z,23.40
2019-02-17T11:40:48.722Z,23.10
2019-02-17T11:44:54.461Z,21.20
2019-02-17T11:49:00.165Z,20.40
2019-02-17T11:53:05.924Z,21.70
2019-02-17T11:57:17.628Z,21.30
2019-02-17T12:01:23.623Z,22.50
2019-02-17T12:05:29.293Z,21.60
2019-02-17T12:09:35.029Z,20.80
2019-02-17T12:13:40.718Z,19.80
2019-02-17T12:17:46.434Z,20.40
2019-02-17T12:22:20.654Z,19.60
2019-02-17T12:26:30.578Z,20.70
2019-02-17T12:30:37.202Z,21.70
2019-02-17T12:34:42.899Z,23.20
2019-02-17T12:38:48.662Z,22.80
2019-02-17T12:42:54.379Z,21.60
2019-02-17T12:47:18.076Z,22.50
2019-02-17T12:51:23.870Z,23.50
2019-02-17T12:55:29.589Z,25.10
2019-02-17T12:59:35.270Z,25.70
2019-02-17T13:07:47.976Z,28.10
2019-02-17T13:12:17.727Z,26.50
2019-02-17T13:16:23.546Z,22.50
2019-02-17T13:20:29.307Z,21.80
2019-02-17T13:24:35.016Z,22.60
2019-02-17T13:28:42.260Z,24.60
2019-02-17T13:32:48.050Z,27.40
2019-02-17T13:36:53.752Z,25.50
2019-02-17T13:40:59.468Z,24.80
2019-02-17T13:45:08.887Z,28.80
2019-02-17T13:49:14.582Z,32.00
2019-02-17T13:53:20.313Z,31.30
2019-02-17T13:57:26.160Z,31.70
2019-02-17T14:01:31.871Z,32.40
2019-02-17T14:05:39.130Z,32.80
2019-02-17T14:09:44.824Z,32.90
2019-02-17T14:13:50.551Z,34.00
2019-02-17T14:17:56.272Z,34.70
2019-02-17T14:22:16.570Z,36.20
2019-02-17T14:26:22.343Z,34.40
2019-02-17T14:30:30.363Z,34.10
2019-02-17T14:34:35.586Z,32.60
2019-02-17T14:38:41.282Z,33.50
2019-02-17T14:42:46.987Z,33.50
2019-02-17T14:46:52.684Z,33.40
2019-02-17T14:50:58.435Z,31.90
2019-02-17T14:55:05.317Z,33.10
2019-02-17T15:00:16.909Z,32.40
2019-02-17T15:11:14.904Z,33.40
2019-02-17T15:27:16.780Z,34.30
2019-02-17T15:31:22.433Z,34.30
2019-02-17T15:36:16.411Z,34.50
2019-02-17T15:40:23.543Z,36.00
2019-02-17T15:45:17.287Z,33.00
2019-02-17T15:49:23.143Z,34.40
2019-02-17T15:54:16.988Z,33.30
2019-02-17T15:58:22.716Z,32.30
2019-02-17T16:07:17.815Z,32.40
2019-02-17T16:11:23.738Z,33.10
2019-02-17T16:15:29.561Z,33.40
2019-02-17T16:19:35.280Z,34.30
2019-02-17T16:23:45.105Z,34.00
2019-02-17T16:27:49.346Z,37.10
2019-02-17T16:32:18.797Z,35.80
2019-02-17T16:36:24.654Z,34.20
2019-02-17T16:40:30.357Z,34.40
2019-02-17T16:44:36.059Z,35.00
2019-02-17T16:48:41.772Z,33.40
2019-02-17T16:52:47.619Z,34.60
2019-02-17T17:01:19.495Z,34.90
2019-02-17T17:05:26.115Z,35.00
2019-02-17T17:09:31.826Z,33.70
2019-02-17T17:17:48.135Z,34.60
2019-02-17T17:22:18.497Z,34.90
2019-02-17T17:26:24.318Z,35.40
2019-02-17T17:30:30.019Z,36.00
2019-02-17T17:34:35.738Z,36.40
2019-02-17T17:38:41.443Z,35.30
2019-02-17T17:42:47.221Z,34.50
2019-02-17T17:46:52.994Z,34.90
2019-02-17T17:50:58.677Z,34.90
2019-02-17T17:55:05.254Z,35.20
2019-02-17T17:59:10.986Z,35.50
2019-02-17T18:03:16.687Z,35.00
2019-02-17T18:07:22.404Z,35.20
2019-02-17T18:11:28.192Z,35.90
2019-02-17T18:15:34.001Z,34.90
2019-02-17T18:19:39.698Z,37.70
2019-02-17T18:23:46.952Z,36.80
2019-02-17T18:27:52.585Z,40.70
2019-02-17T18:37:15.432Z,36.20
2019-02-17T18:41:21.234Z,38.30
2019-02-17T18:45:27.114Z,36.40
2019-02-17T18:49:32.916Z,37.50
2019-02-17T18:53:38.638Z,37.50
2019-02-17T18:57:50.105Z,37.00
2019-02-17T19:01:51.857Z,41.10
2019-02-17T19:05:57.606Z,37.10
2019-02-17T19:10:03.537Z,38.80
2019-02-17T19:25:54.795Z,37.70
2019-02-17T19:35:17.813Z,39.60
2019-02-17T19:40:18.769Z,40.00
2019-02-17T19:49:17.516Z,46.80
2019-02-17T19:53:23.240Z,43.50
2019-02-17T19:57:47.036Z,43.40
2019-02-17T20:01:52.789Z,44.10
2019-02-17T20:06:20.521Z,42.60
2019-02-17T20:10:26.424Z,45.70
2019-02-17T20:15:17.366Z,45.50
2019-02-17T20:19:23.066Z,47.20
2019-02-17T20:28:18.534Z,45.00
2019-02-17T20:32:24.230Z,48.50
2019-02-17T20:36:30.098Z,42.90
2019-02-17T20:40:35.816Z,44.50
2019-02-17T20:45:17.752Z,48.90
2019-02-17T20:49:23.468Z,49.20
2019-02-17T20:53:29.314Z,47.30
2019-02-17T20:57:35.022Z,43.60
2019-02-17T21:01:40.743Z,47.00
2019-02-17T21:06:16.632Z,45.20
2019-02-17T21:10:22.390Z,42.60
2019-02-17T21:14:28.154Z,45.20
2019-02-17T21:18:33.998Z,42.40
2019-02-17T21:22:39.691Z,44.00
2019-02-17T21:26:45.461Z,44.60
2019-02-17T21:30:51.163Z,45.80
2019-02-17T21:34:56.858Z,50.80
2019-02-17T21:39:17.445Z,44.70
2019-02-17T21:43:23.119Z,45.80
2019-02-17T21:47:29.023Z,49.20
2019-02-17T21:51:34.761Z,47.40
2019-02-17T21:55:40.441Z,53.00
2019-02-17T21:59:46.146Z,50.00
2019-02-17T22:04:15.881Z,55.90
2019-02-17T22:08:21.588Z,49.50
2019-02-17T22:12:27.560Z,53.20
2019-02-17T22:16:33.513Z,52.90
2019-02-17T22:20:39.249Z,46.20
2019-02-17T22:24:44.917Z,47.50
2019-02-17T22:28:50.617Z,52.70
2019-02-17T22:32:56.316Z,47.10
2019-02-17T22:37:20.194Z,49.20
2019-02-17T22:41:26.079Z,52.80
2019-02-17T22:45:31.743Z,53.10
2019-02-17T22:49:37.519Z,49.20
2019-02-17T22:53:44.102Z,47.20
2019-02-17T22:57:50.955Z,49.00
2019-02-17T23:01:57.317Z,50.50
2019-02-17T23:06:03.094Z,48.80
2019-02-17T23:10:10.343Z,48.90
2019-02-17T23:14:16.030Z,55.00
2019-02-17T23:18:22.071Z,53.20
2019-02-17T23:22:27.908Z,49.90
2019-02-17T23:26:33.650Z,51.30
2019-02-17T23:30:39.349Z,56.30
2019-02-17T23:34:46.001Z,53.00
2019-02-17T23:38:51.730Z,55.20
2019-02-17T23:42:57.407Z,50.60
2019-02-17T23:47:03.101Z,57.80
2019-02-17T23:51:08.808Z,54.80
2019-02-17T23:55:15.644Z,54.20
2019-02-17T23:59:21.341Z,55.30
